createdAt,value
2017-12-30T00:01:10.745Z,13.38
2017-12-30T00:03:39.762Z,12.60
2017-12-30T00:06:08.055Z,13.13
2017-12-30T00:08:36.330Z,14.40
2017-12-30T00:11:04.593Z,15.25
2017-12-30T00:13:32.855Z,12.52
2017-12-30T00:16:01.141Z,11.98
2017-12-30T00:18:30.163Z,14.57
2017-12-30T00:20:58.477Z,12.93
2017-12-30T00:23:26.792Z,12.27
2017-12-30T00:25:55.156Z,13.18
2017-12-30T00:28:23.414Z,14.90
2017-12-30T00:30:51.685Z,11.05
2017-12-30T00:33:19.987Z,14.15
2017-12-30T00:35:48.260Z,11.98
2017-12-30T00:38:16.597Z,13.48
2017-12-30T00:40:45.619Z,10.97
2017-12-30T00:43:13.879Z,11.00
2017-12-30T00:45:42.895Z,11.60
2017-12-30T00:48:11.249Z,11.00
2017-12-30T00:50:39.473Z,10.90
2017-12-30T00:53:07.741Z,13.77
2017-12-30T00:55:36.002Z,14.80
2017-12-30T00:58:05.057Z,13.67
2017-12-30T01:00:33.323Z,15.45
2017-12-30T01:03:01.618Z,13.10
2017-12-30T01:05:29.873Z,15.43
2017-12-30T01:07:58.181Z,19.60
2017-12-30T01:10:26.446Z,14.07
2017-12-30T01:12:54.729Z,14.73
2017-12-30T01:15:23.013Z,13.60
2017-12-30T01:17:51.301Z,12.55
2017-12-30T01:20:19.566Z,13.00
2017-12-30T01:22:47.826Z,10.87
2017-12-30T01:25:16.845Z,12.87
2017-12-30T01:27:45.182Z,12.60
2017-12-30T01:30:13.430Z,16.62
2017-12-30T01:32:41.706Z,14.50
2017-12-30T01:35:09.988Z,13.65
2017-12-30T01:37:38.272Z,12.80
2017-12-30T01:40:06.525Z,10.23
2017-12-30T01:42:34.840Z,10.10
2017-12-30T01:45:03.099Z,12.03
2017-12-30T01:47:31.367Z,10.37
2017-12-30T01:49:59.683Z,13.00
2017-12-30T01:52:27.967Z,10.18
2017-12-30T01:54:56.235Z,10.87
2017-12-30T01:57:24.495Z,10.20
2017-12-30T01:59:52.798Z,12.20
2017-12-30T02:02:21.050Z,10.25
2017-12-30T02:04:49.339Z,11.95
2017-12-30T02:07:17.595Z,11.93
2017-12-30T02:09:45.881Z,8.43
2017-12-30T02:12:14.166Z,11.03
2017-12-30T02:14:42.481Z,10.05
2017-12-30T02:17:10.731Z,6.60
2017-12-30T02:19:38.997Z,8.02
2017-12-30T02:22:07.316Z,7.15
2017-12-30T02:24:35.594Z,7.80
2017-12-30T02:27:03.850Z,5.25
2017-12-30T02:29:32.157Z,6.00
2017-12-30T02:32:00.414Z,8.93
2017-12-30T02:34:28.678Z,4.43
2017-12-30T02:36:57.731Z,5.75
2017-12-30T02:39:26.012Z,3.17
2017-12-30T02:41:54.264Z,3.57
2017-12-30T02:44:22.522Z,4.97
2017-12-30T02:46:51.547Z,3.67
2017-12-30T02:49:19.856Z,3.47
2017-12-30T02:51:48.092Z,7.00
2017-12-30T02:54:17.252Z,4.03
2017-12-30T02:56:45.502Z,4.07
2017-12-30T02:59:13.782Z,5.20
2017-12-30T03:01:42.792Z,4.10
2017-12-30T03:04:11.033Z,5.97
2017-12-30T03:06:39.297Z,4.32
2017-12-30T03:09:07.541Z,5.63
2017-12-30T03:11:35.910Z,6.70
2017-12-30T03:14:04.141Z,7.00
2017-12-30T03:16:33.171Z,5.45
2017-12-30T03:19:01.426Z,9.50
2017-12-30T03:21:30.455Z,5.53
2017-12-30T03:23:58.704Z,6.00
2017-12-30T03:26:27.783Z,7.60
2017-12-30T03:28:56.023Z,6.93
2017-12-30T03:31:24.273Z,9.93
2017-12-30T03:33:53.282Z,5.20
2017-12-30T03:36:21.548Z,6.70
2017-12-30T03:38:50.553Z,6.10
2017-12-30T03:41:18.914Z,7.80
2017-12-30T03:43:47.970Z,5.80
2017-12-30T03:46:16.242Z,7.70
2017-12-30T03:48:44.522Z,7.95
2017-12-30T03:51:12.786Z,5.80
2017-12-30T03:53:41.023Z,7.73
2017-12-30T03:56:09.291Z,7.80
2017-12-30T03:58:37.526Z,6.90
2017-12-30T04:01:05.762Z,7.63
2017-12-30T04:03:34.101Z,10.38
2017-12-30T04:06:10.079Z,15.43
2017-12-30T04:08:38.356Z,14.60
2017-12-30T04:11:06.594Z,6.33
2017-12-30T04:13:34.909Z,8.43
2017-12-30T04:16:03.161Z,13.53
2017-12-30T04:18:31.430Z,7.57
2017-12-30T04:21:00.477Z,5.83
2017-12-30T04:23:28.751Z,8.68
2017-12-30T04:25:57.004Z,6.27
2017-12-30T04:28:26.119Z,10.27
2017-12-30T04:30:54.364Z,7.87
2017-12-30T04:33:22.632Z,11.83
2017-12-30T04:35:50.886Z,11.00
2017-12-30T04:38:19.266Z,8.48
2017-12-30T04:40:47.524Z,9.47
2017-12-30T04:43:15.781Z,5.90
2017-12-30T04:45:45.341Z,7.20
2017-12-30T04:48:13.604Z,15.23
2017-12-30T04:50:41.857Z,6.40
2017-12-30T04:53:10.881Z,9.52
2017-12-30T04:55:39.127Z,11.20
2017-12-30T04:58:08.166Z,3.73
2017-12-30T05:00:36.430Z,6.23
2017-12-30T05:03:04.741Z,12.80
2017-12-30T05:05:33.714Z,7.23
2017-12-30T05:08:01.985Z,7.75
2017-12-30T05:10:30.999Z,7.55
2017-12-30T05:12:59.260Z,12.60
2017-12-30T05:15:27.509Z,11.85
2017-12-30T05:17:55.745Z,9.47
2017-12-30T05:20:24.017Z,15.43
2017-12-30T05:22:52.260Z,11.87
2017-12-30T05:25:20.530Z,10.63
2017-12-30T05:27:48.777Z,7.27
2017-12-30T05:30:17.067Z,9.33
2017-12-30T05:32:45.347Z,7.77
2017-12-30T05:35:13.614Z,8.23
2017-12-30T05:37:41.856Z,8.47
2017-12-30T05:40:10.876Z,10.73
2017-12-30T05:42:39.130Z,5.33
2017-12-30T05:45:07.377Z,8.03
2017-12-30T05:47:35.642Z,9.23
2017-12-30T05:50:03.916Z,14.98
2017-12-30T05:52:32.159Z,11.33
2017-12-30T05:55:01.205Z,10.70
2017-12-30T05:57:29.450Z,16.07
2017-12-30T05:59:58.474Z,8.57
2017-12-30T06:02:26.728Z,10.47
2017-12-30T06:04:55.765Z,11.73
2017-12-30T06:07:24.658Z,9.73
2017-12-30T06:09:52.923Z,7.97
2017-12-30T06:12:21.172Z,13.93
2017-12-30T06:14:50.198Z,7.97
2017-12-30T06:17:18.443Z,8.93
2017-12-30T06:19:47.518Z,7.77
2017-12-30T06:22:15.782Z,11.07
2017-12-30T06:24:44.169Z,7.10
2017-12-30T06:27:13.362Z,8.17
2017-12-30T06:29:41.610Z,11.90
2017-12-30T06:32:10.741Z,16.33
2017-12-30T06:34:38.985Z,7.30
2017-12-30T06:37:08.001Z,13.70
2017-12-30T06:39:36.339Z,12.30
2017-12-30T06:42:04.626Z,12.40
2017-12-30T06:44:32.899Z,13.80
2017-12-30T06:47:01.163Z,9.80
2017-12-30T06:49:29.459Z,8.90
2017-12-30T06:51:57.738Z,13.57
2017-12-30T06:54:26.122Z,16.23
2017-12-30T06:56:54.481Z,12.63
2017-12-30T06:59:23.578Z,7.30
2017-12-30T07:01:52.400Z,6.60
2017-12-30T07:04:21.093Z,7.77
2017-12-30T07:06:49.718Z,7.43
2017-12-30T07:09:18.793Z,10.90
2017-12-30T07:11:47.471Z,10.17
2017-12-30T07:14:16.059Z,13.10
2017-12-30T07:16:44.654Z,11.47
2017-12-30T07:19:13.453Z,16.27
2017-12-30T07:21:42.544Z,6.17
2017-12-30T07:24:12.260Z,12.70
2017-12-30T07:26:41.566Z,10.40
2017-12-30T07:29:09.946Z,10.93
2017-12-30T07:31:39.122Z,16.57
2017-12-30T07:34:07.379Z,10.50
2017-12-30T07:36:35.677Z,10.10
2017-12-30T07:39:03.962Z,16.13
2017-12-30T07:41:32.226Z,9.57
2017-12-30T07:44:00.480Z,9.10
2017-12-30T07:46:29.489Z,8.87
2017-12-30T07:48:57.752Z,11.60
2017-12-30T07:51:26.777Z,10.20
2017-12-30T07:53:55.071Z,13.70
2017-12-30T07:56:23.316Z,17.10
2017-12-30T07:58:52.361Z,11.10
2017-12-30T08:01:20.626Z,10.50
2017-12-30T08:03:48.902Z,8.50
2017-12-30T08:06:17.198Z,9.40
2017-12-30T08:08:45.457Z,13.20
2017-12-30T08:11:13.707Z,8.00
2017-12-30T08:13:42.041Z,8.77
2017-12-30T08:16:10.291Z,15.40
2017-12-30T08:18:39.382Z,7.73
2017-12-30T08:21:07.581Z,9.80
2017-12-30T08:23:36.710Z,10.73
2017-12-30T08:26:04.945Z,4.53
2017-12-30T08:28:33.954Z,6.83
2017-12-30T08:31:02.987Z,6.10
2017-12-30T08:33:32.025Z,6.53
2017-12-30T08:36:00.239Z,8.50
2017-12-30T08:38:29.254Z,4.60
2017-12-30T08:40:57.490Z,11.10
2017-12-30T08:43:25.820Z,6.33
2017-12-30T08:45:54.114Z,7.53
2017-12-30T08:48:22.442Z,12.07
2017-12-30T08:50:50.685Z,5.63
2017-12-30T08:53:18.969Z,6.87
2017-12-30T08:55:47.371Z,5.70
2017-12-30T08:58:17.162Z,7.17
2017-12-30T09:00:45.432Z,8.83
2017-12-30T09:03:13.661Z,2.80
2017-12-30T09:05:41.922Z,5.60
2017-12-30T09:08:10.187Z,3.33
2017-12-30T09:10:38.453Z,3.83
2017-12-30T09:13:06.689Z,5.00
2017-12-30T09:15:35.087Z,6.13
2017-12-30T09:18:03.307Z,4.30
2017-12-30T09:20:31.579Z,10.87
2017-12-30T09:22:59.852Z,3.30
2017-12-30T09:25:28.077Z,3.57
2017-12-30T09:27:56.314Z,4.70
2017-12-30T09:30:24.581Z,4.77
2017-12-30T09:32:53.628Z,4.17
2017-12-30T09:35:21.901Z,7.23
2017-12-30T09:37:50.188Z,2.77
2017-12-30T09:40:18.478Z,5.10
2017-12-30T09:42:46.797Z,5.33
2017-12-30T09:45:15.404Z,4.73
2017-12-30T09:47:44.497Z,3.73
2017-12-30T09:50:13.579Z,2.70
2017-12-30T09:52:41.791Z,7.63
2017-12-30T09:55:10.823Z,2.77
2017-12-30T09:57:39.053Z,2.87
2017-12-30T10:00:08.076Z,3.10
2017-12-30T10:02:36.322Z,5.27
2017-12-30T10:05:04.662Z,3.70
2017-12-30T10:07:32.948Z,4.40
2017-12-30T10:10:01.183Z,3.13
2017-12-30T10:12:30.197Z,4.07
2017-12-30T10:14:58.454Z,3.53
2017-12-30T10:17:27.190Z,4.10
2017-12-30T10:19:55.432Z,3.37
2017-12-30T10:22:23.761Z,3.10
2017-12-30T10:24:52.018Z,4.90
2017-12-30T10:27:21.037Z,2.93
2017-12-30T10:29:49.294Z,3.93
2017-12-30T10:32:18.831Z,4.63
2017-12-30T10:34:47.074Z,3.77
2017-12-30T10:37:16.099Z,4.30
2017-12-30T10:39:44.437Z,3.00
2017-12-30T10:42:12.703Z,3.10
2017-12-30T10:44:41.904Z,3.23
2017-12-30T10:47:10.210Z,3.63
2017-12-30T10:49:38.601Z,3.43
2017-12-30T10:52:09.596Z,2.97
2017-12-30T10:54:37.915Z,3.90
2017-12-30T10:57:06.958Z,4.60
2017-12-30T10:59:35.207Z,5.53
2017-12-30T11:02:04.236Z,4.47
2017-12-30T11:04:32.473Z,4.83
2017-12-30T11:07:01.854Z,3.90
2017-12-30T11:09:30.319Z,4.53
2017-12-30T11:11:58.828Z,4.20
2017-12-30T11:14:27.911Z,4.37
2017-12-30T11:16:56.148Z,5.57
2017-12-30T11:19:24.394Z,7.40
2017-12-30T11:21:52.726Z,5.30
2017-12-30T11:24:20.974Z,5.83
2017-12-30T11:26:50.039Z,5.13
2017-12-30T11:29:18.259Z,5.77
2017-12-30T11:31:47.286Z,8.20
2017-12-30T11:34:15.525Z,6.17
2017-12-30T11:36:44.607Z,5.07
2017-12-30T11:39:12.854Z,5.77
2017-12-30T11:41:41.126Z,5.60
2017-12-30T11:44:09.455Z,6.70
2017-12-30T11:46:37.711Z,5.50
2017-12-30T11:49:05.957Z,5.83
2017-12-30T11:51:34.237Z,6.80
2017-12-30T11:54:02.493Z,5.97
2017-12-30T11:56:32.249Z,5.40
2017-12-30T11:59:00.518Z,8.13
2017-12-30T12:01:28.771Z,7.33
2017-12-30T12:03:57.014Z,6.80
2017-12-30T12:06:26.110Z,7.10
2017-12-30T12:08:54.353Z,7.30
2017-12-30T12:11:22.608Z,5.90
2017-12-30T12:13:50.859Z,7.50
2017-12-30T12:16:19.117Z,5.57
2017-12-30T12:18:47.464Z,5.20
2017-12-30T12:21:16.490Z,6.67
2017-12-30T12:23:44.743Z,6.60
2017-12-30T12:26:13.025Z,4.20
2017-12-30T12:28:41.263Z,6.70
2017-12-30T12:31:09.619Z,4.47
2017-12-30T12:33:37.867Z,7.20
2017-12-30T12:36:06.123Z,5.63
2017-12-30T12:38:34.418Z,4.90
2017-12-30T12:41:02.755Z,5.43
2017-12-30T12:43:31.033Z,5.10
2017-12-30T12:45:59.289Z,5.00
2017-12-30T12:48:28.323Z,3.93
2017-12-30T12:50:56.582Z,4.27
2017-12-30T12:53:24.817Z,4.83
2017-12-30T12:55:53.074Z,5.10
2017-12-30T12:58:21.310Z,5.80
2017-12-30T13:00:50.347Z,5.07
2017-12-30T13:03:18.634Z,5.07
2017-12-30T13:05:46.881Z,6.07
2017-12-30T13:08:15.210Z,4.57
2017-12-30T13:10:43.883Z,4.90
2017-12-30T13:13:12.090Z,6.00
2017-12-30T13:15:41.877Z,6.03
2017-12-30T13:18:10.112Z,5.67
2017-12-30T13:20:39.136Z,4.87
2017-12-30T13:23:07.370Z,5.40
2017-12-30T13:25:37.154Z,6.27
2017-12-30T13:28:05.465Z,5.50
2017-12-30T13:30:33.748Z,5.30
2017-12-30T13:33:01.990Z,6.97
2017-12-30T13:35:30.226Z,5.20
2017-12-30T13:37:59.255Z,5.80
2017-12-30T13:40:27.494Z,5.87
2017-12-30T13:42:55.844Z,7.40
2017-12-30T13:45:24.109Z,6.80
2017-12-30T13:47:52.398Z,6.70
2017-12-30T13:50:20.677Z,7.80
2017-12-30T13:52:48.959Z,8.07
2017-12-30T13:55:17.202Z,9.40
2017-12-30T13:57:46.247Z,8.67
2017-12-30T14:00:14.501Z,8.83
2017-12-30T14:02:42.790Z,8.80
2017-12-30T14:05:11.066Z,9.33
2017-12-30T14:07:40.210Z,10.60
2017-12-30T14:10:09.300Z,9.47
2017-12-30T14:12:37.574Z,13.30
2017-12-30T14:15:05.810Z,10.17
2017-12-30T14:17:34.850Z,16.80
2017-12-30T14:20:03.151Z,13.43
2017-12-30T14:22:31.444Z,11.90
2017-12-30T14:24:59.726Z,11.67
2017-12-30T14:27:28.011Z,12.47
2017-12-30T14:29:56.387Z,11.67
2017-12-30T14:32:25.090Z,12.83
2017-12-30T14:34:53.326Z,12.40
2017-12-30T14:37:21.642Z,14.20
2017-12-30T14:39:49.915Z,14.50
2017-12-30T14:42:18.186Z,13.50
2017-12-30T14:44:46.440Z,11.30
2017-12-30T14:47:14.749Z,11.13
2017-12-30T14:49:43.002Z,11.53
2017-12-30T14:52:11.275Z,11.50
2017-12-30T14:54:40.287Z,11.67
2017-12-30T14:57:08.544Z,10.17
2017-12-30T14:59:37.791Z,10.80
2017-12-30T15:02:06.072Z,8.50
2017-12-30T15:04:34.315Z,7.93
2017-12-30T15:07:03.355Z,8.33
2017-12-30T15:09:31.584Z,8.43
2017-12-30T15:12:00.650Z,8.13
2017-12-30T15:14:28.886Z,13.10
2017-12-30T15:16:57.138Z,6.73
2017-12-30T15:19:25.393Z,8.33
2017-12-30T15:21:53.770Z,6.50
2017-12-30T15:24:22.003Z,7.97
2017-12-30T15:26:51.022Z,9.47
2017-12-30T15:29:19.313Z,7.77
2017-12-30T15:34:23.200Z,8.53
2017-12-30T15:36:51.456Z,11.03
2017-12-30T15:39:19.707Z,11.13
2017-12-30T15:41:47.990Z,8.17
2017-12-30T15:44:16.237Z,10.10
2017-12-30T15:46:45.283Z,7.60
2017-12-30T15:49:13.526Z,11.90
2017-12-30T15:51:41.792Z,9.60
2017-12-30T15:54:10.839Z,10.40
2017-12-30T15:56:39.248Z,5.93
2017-12-30T15:59:08.045Z,10.90
2017-12-30T16:01:36.570Z,11.10
2017-12-30T16:04:04.853Z,7.73
2017-12-30T16:06:33.110Z,8.30
2017-12-30T16:09:01.375Z,8.23
2017-12-30T16:11:29.617Z,6.70
2017-12-30T16:13:57.866Z,9.00
2017-12-30T16:16:26.148Z,8.13
2017-12-30T16:18:54.410Z,9.67
2017-12-30T16:21:22.633Z,10.63
2017-12-30T16:23:50.927Z,7.07
2017-12-30T16:26:19.197Z,11.47
2017-12-30T16:28:47.538Z,11.93
2017-12-30T16:31:15.769Z,6.70
2017-12-30T16:33:44.776Z,16.40
2017-12-30T16:36:13.018Z,9.43
2017-12-30T16:38:42.051Z,11.17
2017-12-30T16:41:10.782Z,6.17
2017-12-30T16:43:39.133Z,15.77
2017-12-30T16:46:07.363Z,10.80
2017-12-30T16:48:35.687Z,14.50
2017-12-30T16:51:03.951Z,10.17
2017-12-30T16:53:34.883Z,8.63
2017-12-30T16:56:12.635Z,13.33
2017-12-30T16:58:41.609Z,8.43
2017-12-30T17:01:09.867Z,13.30
2017-12-30T17:03:38.895Z,13.20
2017-12-30T17:06:07.154Z,8.90
2017-12-30T17:08:35.401Z,7.57
2017-12-30T17:11:03.669Z,13.20
2017-12-30T17:13:31.932Z,13.20
2017-12-30T17:16:00.197Z,23.67
2017-12-30T17:18:28.464Z,11.90
2017-12-30T17:20:56.753Z,12.80
2017-12-30T17:23:25.052Z,13.20
2017-12-30T17:25:53.328Z,7.53
2017-12-30T17:28:21.618Z,13.63
2017-12-30T17:30:49.878Z,11.03
2017-12-30T17:33:18.154Z,23.90
2017-12-30T17:35:46.425Z,11.97
2017-12-30T17:38:14.706Z,11.57
2017-12-30T17:40:43.185Z,13.20
2017-12-30T17:43:11.459Z,13.97
2017-12-30T17:45:40.840Z,11.97
2017-12-30T17:48:09.097Z,13.90
2017-12-30T17:50:37.374Z,12.50
2017-12-30T17:53:05.643Z,21.17
2017-12-30T17:55:33.909Z,14.70
2017-12-30T17:58:02.178Z,9.70
2017-12-30T18:00:31.189Z,13.00
2017-12-30T18:02:59.455Z,11.03
2017-12-30T18:05:28.471Z,11.10
2017-12-30T18:07:56.735Z,14.73
2017-12-30T18:10:24.990Z,18.20
2017-12-30T18:12:53.272Z,8.80
2017-12-30T18:15:21.518Z,14.10
2017-12-30T18:17:49.798Z,13.20
2017-12-30T18:20:18.039Z,13.07
2017-12-30T18:22:47.075Z,11.03
2017-12-30T18:25:15.346Z,8.87
2017-12-30T18:27:43.630Z,11.93
2017-12-30T18:30:11.938Z,13.13
2017-12-30T18:32:40.775Z,19.87
2017-12-30T18:35:09.046Z,17.53
2017-12-30T18:37:38.066Z,11.17
2017-12-30T18:40:06.353Z,17.13
2017-12-30T18:42:34.605Z,16.00
2017-12-30T18:45:03.632Z,12.07
2017-12-30T18:47:31.879Z,12.00
2017-12-30T18:50:00.905Z,9.70
2017-12-30T18:52:29.160Z,15.90
2017-12-30T18:54:58.547Z,8.33
2017-12-30T18:57:27.028Z,11.40
2017-12-30T18:59:55.467Z,11.90
2017-12-30T19:02:23.994Z,16.87
2017-12-30T19:04:53.274Z,15.97
2017-12-30T19:07:21.540Z,11.73
2017-12-30T19:09:49.797Z,10.40
2017-12-30T19:12:19.051Z,13.40
2017-12-30T19:14:47.314Z,15.77
2017-12-30T19:17:15.718Z,11.37
2017-12-30T19:19:44.526Z,14.57
2017-12-30T19:22:12.809Z,11.90
2017-12-30T19:24:41.059Z,10.23
2017-12-30T19:27:09.364Z,16.60
2017-12-30T19:29:37.594Z,14.50
2017-12-30T19:32:05.882Z,13.33
2017-12-30T19:34:34.143Z,11.97
2017-12-30T19:37:03.923Z,11.40
2017-12-30T19:39:32.183Z,13.13
2017-12-30T19:42:00.456Z,13.00
2017-12-30T19:44:28.720Z,11.83
2017-12-30T19:46:57.014Z,9.77
2017-12-30T19:49:25.288Z,14.77
2017-12-30T19:51:53.534Z,10.23
2017-12-30T19:54:22.669Z,10.43
2017-12-30T19:56:50.984Z,12.37
2017-12-30T19:59:19.231Z,14.50
2017-12-30T20:01:47.499Z,12.63
2017-12-30T20:04:15.766Z,10.70
2017-12-30T20:06:44.036Z,13.17
2017-12-30T20:09:13.071Z,11.47
2017-12-30T20:11:41.362Z,9.63
2017-12-30T20:14:09.626Z,11.00
2017-12-30T20:16:37.878Z,15.00
2017-12-30T20:19:06.911Z,10.30
2017-12-30T20:21:35.209Z,10.23
2017-12-30T20:24:03.475Z,9.97
2017-12-30T20:26:31.716Z,13.53
2017-12-30T20:29:00.794Z,13.40
2017-12-30T20:31:29.054Z,10.13
2017-12-30T20:33:57.327Z,7.10
2017-12-30T20:36:25.601Z,13.17
2017-12-30T20:38:53.862Z,10.73
2017-12-30T20:41:22.133Z,6.60
2017-12-30T20:43:50.537Z,11.37
2017-12-30T20:46:18.846Z,11.03
2017-12-30T20:48:47.107Z,9.30
2017-12-30T20:51:15.374Z,5.50
2017-12-30T20:53:43.642Z,9.60
2017-12-30T20:56:11.924Z,12.57
2017-12-30T20:58:40.195Z,9.00
2017-12-30T21:01:09.233Z,6.73
2017-12-30T21:03:37.545Z,6.53
2017-12-30T21:06:05.799Z,5.97
2017-12-30T21:08:34.074Z,6.80
2017-12-30T21:11:02.694Z,5.37
2017-12-30T21:13:30.995Z,7.73
2017-12-30T21:15:59.234Z,7.27
2017-12-30T21:18:27.498Z,5.43
2017-12-30T21:20:55.756Z,4.13
2017-12-30T21:23:24.822Z,4.80
2017-12-30T21:25:53.087Z,8.00
2017-12-30T21:28:21.495Z,6.83
2017-12-30T21:30:49.732Z,5.97
2017-12-30T21:33:18.003Z,11.00
2017-12-30T21:35:46.263Z,7.27
2017-12-30T21:38:15.294Z,8.03
2017-12-30T21:40:43.554Z,7.60
2017-12-30T21:43:11.835Z,5.80
2017-12-30T21:45:40.088Z,8.17
2017-12-30T21:48:08.348Z,8.37
2017-12-30T21:50:36.601Z,6.30
2017-12-30T21:53:04.863Z,3.90
2017-12-30T21:55:33.119Z,6.70
2017-12-30T21:58:02.153Z,4.40
2017-12-30T22:00:30.393Z,6.97
2017-12-30T22:02:59.431Z,5.60
2017-12-30T22:05:27.718Z,4.37
2017-12-30T22:07:59.194Z,5.80
2017-12-30T22:10:28.974Z,5.10
2017-12-30T22:12:57.234Z,3.17
2017-12-30T22:15:26.282Z,7.17
2017-12-30T22:17:54.529Z,5.17
2017-12-30T22:20:23.549Z,3.33
2017-12-30T22:22:51.807Z,4.93
2017-12-30T22:25:20.080Z,2.13
2017-12-30T22:27:48.353Z,5.93
2017-12-30T22:30:16.626Z,2.60
2017-12-30T22:32:44.981Z,3.60
2017-12-30T22:35:13.248Z,5.37
2017-12-30T22:37:41.499Z,7.33
2017-12-30T22:40:10.533Z,3.33
2017-12-30T22:42:38.785Z,3.43
2017-12-30T22:45:07.039Z,8.50
2017-12-30T22:47:36.093Z,6.37
2017-12-30T22:50:04.374Z,3.40
2017-12-30T22:52:32.618Z,3.93
2017-12-30T22:55:00.902Z,3.50
2017-12-30T22:57:29.934Z,7.20
2017-12-30T22:59:58.202Z,2.63
2017-12-30T23:02:26.439Z,4.63
2017-12-30T23:04:54.702Z,2.37
2017-12-30T23:07:22.940Z,4.47
2017-12-30T23:09:51.210Z,4.50
2017-12-30T23:12:19.454Z,7.30
2017-12-30T23:14:47.734Z,5.60
2017-12-30T23:17:15.989Z,3.80
2017-12-30T23:19:44.264Z,2.20
2017-12-30T23:22:12.510Z,4.70
2017-12-30T23:24:40.777Z,3.50
2017-12-30T23:27:09.788Z,5.13
2017-12-30T23:29:38.811Z,1.80
2017-12-30T23:32:07.068Z,4.20
2017-12-30T23:34:36.098Z,5.13
2017-12-30T23:37:04.376Z,5.93
2017-12-30T23:39:32.661Z,3.10
2017-12-30T23:42:00.918Z,2.27
2017-12-30T23:44:29.205Z,7.53
2017-12-30T23:46:57.446Z,4.23
2017-12-30T23:49:25.718Z,3.57
2017-12-30T23:51:53.988Z,3.57
2017-12-30T23:54:22.258Z,4.23
2017-12-30T23:56:50.509Z,5.70
2017-12-30T23:59:18.786Z,5.37
